createdAt,value
2023-07-05T00:04:58.205Z,100
2023-07-05T00:10:29.591Z,100
2023-07-05T00:16:09.626Z,100
2023-07-05T00:21:26.486Z,100
2023-07-05T00:27:17.850Z,100
2023-07-05T00:43:49.577Z,100
2023-07-05T00:49:23.617Z,100
2023-07-05T00:55:18.854Z,100
2023-07-05T01:00:33.008Z,100
2023-07-05T01:06:19.032Z,100
2023-07-05T01:11:41.056Z,100
2023-07-05T01:17:18.116Z,100
2023-07-05T01:22:48.276Z,100
2023-07-05T01:34:13.971Z,100
2023-07-05T01:39:31.273Z,100
2023-07-05T01:45:10.219Z,100
2023-07-05T01:50:38.339Z,100
2023-07-05T01:56:25.580Z,100
2023-07-05T02:01:44.640Z,100
2023-07-05T02:07:37.289Z,100
2023-07-05T02:18:37.244Z,100
2023-07-05T02:24:19.831Z,100
2023-07-05T02:29:46.934Z,100
2023-07-05T02:35:16.315Z,100
2023-07-05T02:41:04.818Z,100
2023-07-05T02:46:21.642Z,100
2023-07-05T02:52:06.492Z,100
2023-07-05T02:57:26.866Z,100
2023-07-05T03:03:08.815Z,100
2023-07-05T03:08:36.776Z,100
2023-07-05T03:14:12.104Z,100
2023-07-05T03:19:54.092Z,100
2023-07-05T03:25:17.731Z,100
2023-07-05T03:31:00.513Z,100
2023-07-05T03:36:32.613Z,100
2023-07-05T03:42:12.627Z,100
2023-07-05T03:47:33.271Z,100
2023-07-05T03:58:54.603Z,100
2023-07-05T04:04:16.981Z,100
2023-07-05T04:10:15.802Z,100
2023-07-05T04:15:32.751Z,100
2023-07-05T04:21:01.292Z,100
2023-07-05T04:26:41.441Z,100
2023-07-05T04:32:29.827Z,100
2023-07-05T04:37:45.275Z,100
2023-07-05T04:43:16.159Z,100
2023-07-05T04:48:57.175Z,100
2023-07-05T04:54:34.799Z,100
2023-07-05T04:59:59.475Z,100
2023-07-05T05:05:33.907Z,100
2023-07-05T05:11:19.800Z,100
2023-07-05T05:16:44.919Z,100
2023-07-05T05:22:42.584Z,100
2023-07-05T05:33:32.716Z,100
2023-07-05T05:39:11.500Z,100
2023-07-05T05:44:53.614Z,100
2023-07-05T05:50:30.609Z,100
2023-07-05T05:56:05.515Z,100
2023-07-05T06:01:47.429Z,100
2023-07-05T06:07:15.993Z,100
2023-07-05T06:12:47.605Z,100
2023-07-05T06:18:11.845Z,100
2023-07-05T06:29:26.550Z,100
2023-07-05T06:35:01.610Z,100
2023-07-05T06:40:49.074Z,100
2023-07-05T06:46:17.135Z,100
2023-07-05T06:51:46.431Z,100
2023-07-05T06:57:38.722Z,100
2023-07-05T07:02:53.556Z,100
2023-07-05T07:13:56.601Z,100
2023-07-05T07:19:34.575Z,100
2023-07-05T07:25:08.125Z,100
2023-07-05T07:31:08.582Z,100
2023-07-05T07:36:29.429Z,100
2023-07-05T07:42:14.650Z,100
2023-07-05T07:47:38.656Z,100
2023-07-05T07:58:43.783Z,100
2023-07-05T08:04:19.859Z,100
2023-07-05T08:10:10.775Z,100
2023-07-05T08:15:45.878Z,100
2023-07-05T08:21:12.221Z,100
2023-07-05T08:27:07.248Z,100
2023-07-05T08:32:24.864Z,100
2023-07-05T08:37:59.890Z,100
2023-07-05T08:43:27.004Z,100
2023-07-05T08:49:11.066Z,100
2023-07-05T08:55:02.261Z,100
2023-07-05T09:00:26.115Z,100
2023-07-05T09:06:05.140Z,100
2023-07-05T09:11:49.457Z,100
2023-07-05T09:17:23.215Z,100
2023-07-05T09:22:57.573Z,100
2023-07-05T09:33:45.458Z,100
2023-07-05T09:39:38.288Z,100
2023-07-05T09:45:23.889Z,100
2023-07-05T09:50:35.259Z,100
2023-07-05T09:56:32.619Z,100
2023-07-05T10:01:58.829Z,100
2023-07-05T10:07:25.552Z,100
2023-07-05T10:13:05.096Z,100
2023-07-05T10:24:32.619Z,100
2023-07-05T10:29:57.820Z,100
2023-07-05T10:35:40.543Z,100
2023-07-05T10:41:03.673Z,100
2023-07-05T10:46:39.646Z,100
2023-07-05T10:52:20.577Z,100
2023-07-05T10:58:02.936Z,100
2023-07-05T11:03:23.927Z,100
2023-07-05T11:09:06.024Z,100
2023-07-05T11:14:34.469Z,100
2023-07-05T11:20:09.068Z,100
2023-07-05T11:25:58.106Z,100
2023-07-05T11:31:43.722Z,100
2023-07-05T11:37:19.266Z,100
2023-07-05T11:42:59.174Z,100
2023-07-05T11:48:23.910Z,100
2023-07-05T11:53:52.034Z,100
2023-07-05T11:59:43.132Z,100
2023-07-05T12:05:18.324Z,100
2023-07-05T12:11:05.030Z,100
2023-07-05T12:16:21.017Z,100
2023-07-05T12:22:24.919Z,100
2023-07-05T12:27:53.879Z,100
2023-07-05T12:33:16.804Z,100
2023-07-05T12:39:08.336Z,100
2023-07-05T12:44:51.507Z,100
2023-07-05T12:50:21.350Z,100
2023-07-05T12:56:06.229Z,100
2023-07-05T13:01:23.951Z,100
2023-07-05T13:07:09.358Z,100
2023-07-05T13:12:56.384Z,100
2023-07-05T13:18:34.352Z,100
2023-07-05T13:23:56.880Z,100
2023-07-05T13:29:41.549Z,100
2023-07-05T13:35:17.793Z,100
2023-07-05T13:41:05.373Z,100
2023-07-05T13:46:42.983Z,100
2023-07-05T13:52:20.552Z,100
2023-07-05T13:57:54.698Z,100
2023-07-05T14:03:36.308Z,100
2023-07-05T14:09:00.192Z,100
2023-07-05T14:15:02.889Z,100
2023-07-05T14:20:36.851Z,97
2023-07-05T14:25:56.581Z,100
2023-07-05T14:31:38.338Z,100
2023-07-05T14:37:24.035Z,100
2023-07-05T14:43:11.016Z,100
2023-07-05T14:54:09.549Z,100
2023-07-05T15:00:01.594Z,100
2023-07-05T15:05:25.128Z,100
2023-07-05T15:11:04.386Z,100
2023-07-05T15:16:57.199Z,100
2023-07-05T15:22:38.554Z,100
2023-07-05T15:27:54.397Z,100
2023-07-05T15:33:30.259Z,100
2023-07-05T15:39:13.695Z,100
2023-07-05T15:44:49.823Z,100
2023-07-05T15:50:46.182Z,100
2023-07-05T15:56:01.914Z,100
2023-07-05T16:01:54.872Z,100
2023-07-05T16:07:28.099Z,100
2023-07-05T16:12:49.265Z,100
2023-07-05T16:18:41.105Z,100
2023-07-05T16:24:01.019Z,100
2023-07-05T16:29:55.477Z,100
2023-07-05T16:35:41.351Z,100
2023-07-05T16:40:58.282Z,100
2023-07-05T16:46:36.778Z,100
2023-07-05T16:52:22.431Z,100
2023-07-05T16:57:47.158Z,98
2023-07-05T17:09:23.785Z,77
2023-07-05T17:14:32.045Z,75
2023-07-05T17:20:11.247Z,72
2023-07-05T17:25:52.274Z,73
2023-07-05T17:31:40.582Z,72
2023-07-05T17:37:02.082Z,71
2023-07-05T17:42:53.896Z,76
2023-07-05T17:48:13.029Z,75
2023-07-05T17:54:01.435Z,75
2023-07-05T17:59:43.541Z,74
2023-07-05T18:05:12.400Z,79
2023-07-05T18:10:52.882Z,77
2023-07-05T18:16:19.747Z,84
2023-07-05T18:21:52.361Z,79
2023-07-05T18:27:33.113Z,78
2023-07-05T18:33:31.371Z,82
2023-07-05T18:38:54.062Z,80
2023-07-05T18:44:37.361Z,91
2023-07-05T18:50:06.635Z,88
2023-07-05T18:55:34.975Z,98
2023-07-05T19:01:21.909Z,100
2023-07-05T19:06:57.537Z,100
2023-07-05T19:12:21.322Z,100
2023-07-05T19:18:03.055Z,100
2023-07-05T19:29:19.687Z,100
2023-07-05T19:34:35.612Z,100
2023-07-05T19:40:31.874Z,100
2023-07-05T19:45:42.284Z,100
2023-07-05T19:51:37.776Z,100
2023-07-05T19:57:10.066Z,100
2023-07-05T20:02:36.505Z,100
2023-07-05T20:19:35.558Z,100
2023-07-05T20:25:09.833Z,100
2023-07-05T20:30:30.574Z,100
2023-07-05T20:36:10.829Z,100
2023-07-05T20:41:34.118Z,100
2023-07-05T20:47:13.951Z,100
2023-07-05T20:52:49.816Z,100
2023-07-05T20:58:17.033Z,100
2023-07-05T21:04:15.579Z,100
2023-07-05T21:09:43.905Z,100
2023-07-05T21:15:03.002Z,100
2023-07-05T21:20:46.922Z,100
2023-07-05T21:26:12.013Z,100
2023-07-05T21:31:58.252Z,100
2023-07-05T21:37:40.198Z,100
2023-07-05T21:42:58.002Z,100
2023-07-05T21:48:29.054Z,100
2023-07-05T21:54:19.162Z,100
2023-07-05T22:00:02.291Z,100
2023-07-05T22:05:35.529Z,100
2023-07-05T22:10:57.910Z,100
2023-07-05T22:16:44.501Z,100
2023-07-05T22:22:04.512Z,100
2023-07-05T22:27:52.173Z,100
2023-07-05T22:33:06.508Z,100
2023-07-05T22:38:47.232Z,100
2023-07-05T22:44:12.733Z,100
2023-07-05T22:50:10.529Z,100
2023-07-05T22:55:24.671Z,100
2023-07-05T23:01:21.956Z,100
2023-07-05T23:06:38.663Z,100
2023-07-05T23:12:21.701Z,100
2023-07-05T23:17:41.484Z,100
2023-07-05T23:28:52.693Z,100
2023-07-05T23:34:43.106Z,100
2023-07-05T23:39:55.140Z,100
2023-07-05T23:45:34.739Z,100
2023-07-05T23:51:22.100Z,100
2023-07-05T23:56:54.627Z,100
